createdAt,value
2019-05-19T00:00:31.491Z,15.22
2019-05-19T00:02:59.980Z,15.22
2019-05-19T00:05:28.440Z,15.28
2019-05-19T00:07:56.965Z,15.33
2019-05-19T00:10:25.356Z,15.39
2019-05-19T00:12:53.754Z,15.41
2019-05-19T00:15:22.314Z,15.43
2019-05-19T00:17:53.090Z,15.43
2019-05-19T00:20:20.847Z,15.43
2019-05-19T00:22:49.374Z,15.43
2019-05-19T00:25:17.786Z,15.44
2019-05-19T00:27:46.999Z,15.42
2019-05-19T00:30:15.855Z,15.42
2019-05-19T00:32:44.252Z,15.40
2019-05-19T00:35:12.897Z,15.42
2019-05-19T00:37:41.492Z,15.41
2019-05-19T00:40:10.237Z,15.40
2019-05-19T00:42:38.639Z,15.39
2019-05-19T00:45:08.001Z,15.40
2019-05-19T00:47:36.642Z,15.40
2019-05-19T00:50:11.282Z,15.42
2019-05-19T00:52:39.896Z,15.44
2019-05-19T00:55:08.531Z,15.39
2019-05-19T00:57:38.036Z,15.32
2019-05-19T01:00:08.553Z,15.27
2019-05-19T01:02:36.903Z,15.30
2019-05-19T01:05:08.009Z,15.32
2019-05-19T01:07:37.013Z,15.31
2019-05-19T01:10:27.930Z,15.30
2019-05-19T01:12:56.368Z,15.31
2019-05-19T01:15:24.835Z,15.23
2019-05-19T01:17:53.234Z,15.15
2019-05-19T01:20:23.351Z,15.10
2019-05-19T01:22:51.748Z,15.05
2019-05-19T01:25:20.281Z,15.08
2019-05-19T01:27:48.947Z,15.15
2019-05-19T01:30:19.070Z,15.20
2019-05-19T01:32:47.546Z,15.19
2019-05-19T01:35:15.960Z,15.14
2019-05-19T01:37:44.357Z,15.10
2019-05-19T01:40:13.192Z,15.06
2019-05-19T01:42:43.969Z,15.10
2019-05-19T01:45:12.803Z,15.09
2019-05-19T01:47:41.202Z,15.04
2019-05-19T01:50:18.672Z,15.01
2019-05-19T01:52:40.517Z,14.97
2019-05-19T01:55:09.362Z,14.96
2019-05-19T01:57:37.784Z,14.94
2019-05-19T02:00:08.423Z,14.96
2019-05-19T02:02:36.812Z,14.99
2019-05-19T02:05:06.786Z,15.01
2019-05-19T02:07:35.228Z,15.01
2019-05-19T02:10:05.423Z,14.93
2019-05-19T02:12:34.044Z,14.88
2019-05-19T02:15:03.277Z,14.81
2019-05-19T02:17:31.681Z,14.76
2019-05-19T02:20:00.176Z,14.69
2019-05-19T02:22:28.581Z,14.62
2019-05-19T02:24:56.993Z,14.56
2019-05-19T02:27:25.422Z,14.46
2019-05-19T02:29:53.840Z,14.39
2019-05-19T02:32:22.316Z,14.28
2019-05-19T02:34:50.851Z,14.16
2019-05-19T02:37:19.315Z,14.10
2019-05-19T02:39:47.718Z,14.07
2019-05-19T02:42:19.028Z,14.05
2019-05-19T02:44:49.039Z,13.91
2019-05-19T02:47:19.370Z,13.91
2019-05-19T02:49:49.544Z,13.79
2019-05-19T02:52:19.447Z,13.75
2019-05-19T02:54:48.120Z,13.77
2019-05-19T02:57:17.644Z,13.79
2019-05-19T02:59:46.377Z,13.80
2019-05-19T03:02:15.150Z,13.81
2019-05-19T03:04:43.586Z,13.84
2019-05-19T03:07:11.996Z,13.79
2019-05-19T03:09:40.376Z,13.76
2019-05-19T03:12:08.984Z,13.76
2019-05-19T03:14:37.370Z,13.73
2019-05-19T03:17:05.764Z,13.75
2019-05-19T03:19:34.193Z,13.79
2019-05-19T03:22:02.591Z,13.82
2019-05-19T03:24:30.988Z,13.81
2019-05-19T03:26:59.407Z,13.83
2019-05-19T03:29:32.163Z,13.86
2019-05-19T03:32:11.819Z,13.79
2019-05-19T03:34:35.229Z,13.71
2019-05-19T03:37:03.699Z,13.65
2019-05-19T03:39:32.279Z,13.62
2019-05-19T03:42:00.669Z,13.65
2019-05-19T03:44:29.115Z,13.58
2019-05-19T03:46:57.532Z,13.58
2019-05-19T03:49:25.930Z,13.61
2019-05-19T03:51:54.339Z,13.61
2019-05-19T03:54:22.799Z,13.57
2019-05-19T03:56:51.201Z,13.56
2019-05-19T03:59:19.603Z,13.48
2019-05-19T04:01:48.185Z,13.48
2019-05-19T04:04:16.637Z,13.42
2019-05-19T04:06:44.993Z,13.35
2019-05-19T04:09:17.152Z,13.25
2019-05-19T04:11:43.535Z,13.22
2019-05-19T04:14:11.991Z,13.18
2019-05-19T04:16:40.428Z,13.06
2019-05-19T04:19:08.837Z,13.12
2019-05-19T04:21:48.068Z,13.13
2019-05-19T04:24:07.563Z,13.19
2019-05-19T04:26:35.957Z,13.27
2019-05-19T04:29:04.524Z,13.34
2019-05-19T04:31:33.211Z,13.36
2019-05-19T04:34:01.619Z,13.29
2019-05-19T04:36:29.999Z,13.29
2019-05-19T04:38:58.446Z,13.29
2019-05-19T04:41:26.812Z,13.34
2019-05-19T04:43:55.214Z,13.37
2019-05-19T04:46:23.650Z,13.46
2019-05-19T04:48:52.220Z,13.51
2019-05-19T04:51:20.620Z,13.61
2019-05-19T04:53:49.052Z,13.70
2019-05-19T04:56:19.645Z,13.77
2019-05-19T04:58:47.588Z,13.84
2019-05-19T05:01:16.026Z,13.84
2019-05-19T05:03:44.429Z,13.83
2019-05-19T05:06:12.834Z,13.87
2019-05-19T05:08:41.272Z,13.87
2019-05-19T05:11:09.665Z,13.86
2019-05-19T05:13:38.061Z,13.87
2019-05-19T05:16:06.474Z,13.89
2019-05-19T05:18:34.900Z,13.94
2019-05-19T05:21:03.274Z,13.93
2019-05-19T05:23:31.714Z,13.97
2019-05-19T05:26:00.214Z,14.02
2019-05-19T05:28:28.682Z,14.06
2019-05-19T05:30:57.180Z,14.12
2019-05-19T05:33:25.688Z,14.16
2019-05-19T05:35:54.083Z,14.22
2019-05-19T05:38:22.685Z,14.25
2019-05-19T05:40:51.084Z,14.30
2019-05-19T05:43:19.554Z,14.33
2019-05-19T05:45:48.339Z,14.35
2019-05-19T05:48:16.754Z,14.42
2019-05-19T05:50:45.152Z,14.46
2019-05-19T05:53:13.580Z,14.53
2019-05-19T05:55:42.021Z,14.57
2019-05-19T05:58:10.382Z,14.60
2019-05-19T06:00:39.013Z,14.65
2019-05-19T06:03:07.402Z,14.74
2019-05-19T06:05:35.925Z,14.80
2019-05-19T06:08:04.564Z,14.89
2019-05-19T06:10:32.970Z,14.95
2019-05-19T06:13:01.477Z,15.03
2019-05-19T06:15:30.137Z,15.09
2019-05-19T06:17:58.544Z,15.18
2019-05-19T06:20:27.011Z,15.26
2019-05-19T06:22:57.170Z,15.34
2019-05-19T06:25:25.901Z,15.39
2019-05-19T06:27:54.456Z,15.42
2019-05-19T06:30:22.948Z,15.47
2019-05-19T06:32:52.998Z,15.55
2019-05-19T06:35:21.430Z,15.61
2019-05-19T06:37:49.886Z,15.68
2019-05-19T06:40:18.280Z,15.75
2019-05-19T06:42:46.673Z,15.84
2019-05-19T06:45:16.419Z,15.93
2019-05-19T06:47:45.115Z,16.00
2019-05-19T06:50:14.124Z,16.06
2019-05-19T06:52:42.645Z,16.13
2019-05-19T06:55:11.384Z,16.23
2019-05-19T06:57:39.791Z,16.31
2019-05-19T07:00:09.153Z,16.41
2019-05-19T07:02:37.652Z,16.50
2019-05-19T07:05:07.210Z,16.56
2019-05-19T07:07:35.628Z,16.62
2019-05-19T07:10:28.293Z,16.67
2019-05-19T07:12:56.812Z,16.72
2019-05-19T07:15:25.215Z,16.77
2019-05-19T07:17:53.612Z,16.80
2019-05-19T07:20:22.144Z,16.85
2019-05-19T07:22:50.548Z,16.91
2019-05-19T07:25:18.940Z,16.97
2019-05-19T07:27:47.613Z,17.01
2019-05-19T07:30:17.151Z,17.07
2019-05-19T07:32:45.550Z,17.12
2019-05-19T07:35:14.263Z,17.18
2019-05-19T07:37:42.665Z,17.22
2019-05-19T07:40:11.705Z,17.28
2019-05-19T07:42:40.131Z,17.32
2019-05-19T07:45:08.966Z,17.37
2019-05-19T07:47:37.378Z,17.42
2019-05-19T07:50:06.338Z,17.49
2019-05-19T07:52:34.856Z,17.59
2019-05-19T07:55:04.302Z,17.66
2019-05-19T07:57:32.723Z,17.77
2019-05-19T08:00:01.122Z,17.86
2019-05-19T08:02:29.582Z,17.93
2019-05-19T08:04:58.308Z,17.96
2019-05-19T08:07:26.710Z,18.00
2019-05-19T08:09:55.106Z,18.08
2019-05-19T08:12:23.730Z,18.19
2019-05-19T08:14:52.138Z,18.32
2019-05-19T08:17:20.541Z,18.43
2019-05-19T08:19:48.970Z,18.50
2019-05-19T08:22:17.375Z,18.57
2019-05-19T08:24:45.768Z,18.63
2019-05-19T08:27:14.302Z,18.68
2019-05-19T08:29:42.703Z,18.76
2019-05-19T08:32:11.137Z,18.83
2019-05-19T08:34:39.590Z,18.88
2019-05-19T08:37:07.996Z,18.94
2019-05-19T08:39:36.398Z,19.00
2019-05-19T08:42:05.083Z,19.10
2019-05-19T08:44:33.482Z,19.27
2019-05-19T08:47:01.899Z,19.36
2019-05-19T08:49:30.683Z,19.39
2019-05-19T08:51:59.096Z,19.48
2019-05-19T08:54:27.492Z,19.54
2019-05-19T08:56:56.085Z,19.62
2019-05-19T08:59:24.486Z,19.75
2019-05-19T09:01:53.005Z,19.89
2019-05-19T09:04:21.562Z,19.94
2019-05-19T09:06:49.983Z,20.01
2019-05-19T09:09:18.372Z,20.13
2019-05-19T09:11:47.978Z,20.17
2019-05-19T09:14:16.647Z,20.12
2019-05-19T09:16:45.048Z,20.13
2019-05-19T09:19:13.601Z,20.20
2019-05-19T09:21:41.994Z,20.32
2019-05-19T09:24:10.402Z,20.42
2019-05-19T09:26:38.832Z,20.50
2019-05-19T09:29:07.294Z,20.56
2019-05-19T09:31:35.760Z,20.61
2019-05-19T09:34:04.525Z,20.72
2019-05-19T09:36:32.943Z,20.82
2019-05-19T09:39:01.424Z,20.89
2019-05-19T09:41:29.936Z,20.99
2019-05-19T09:43:58.344Z,21.09
2019-05-19T09:46:26.812Z,21.22
2019-05-19T09:49:13.096Z,21.35
2019-05-19T09:51:41.528Z,21.47
2019-05-19T09:54:09.941Z,21.60
2019-05-19T09:56:38.361Z,21.72
2019-05-19T09:59:06.832Z,21.83
2019-05-19T10:01:35.233Z,21.92
2019-05-19T10:04:07.010Z,21.97
2019-05-19T10:06:33.921Z,22.01
2019-05-19T10:09:09.158Z,22.12
2019-05-19T10:12:09.311Z,22.28
2019-05-19T10:14:37.768Z,22.41
2019-05-19T10:17:06.214Z,22.55
2019-05-19T10:19:34.677Z,22.48
2019-05-19T10:22:03.144Z,22.44
2019-05-19T10:24:31.545Z,22.52
2019-05-19T10:27:00.083Z,22.63
2019-05-19T10:29:28.597Z,22.70
2019-05-19T10:31:56.953Z,22.69
2019-05-19T10:34:25.486Z,22.74
2019-05-19T10:36:53.885Z,22.81
2019-05-19T10:39:22.319Z,22.85
2019-05-19T10:41:50.811Z,22.96
2019-05-19T10:44:19.258Z,23.01
2019-05-19T10:46:47.660Z,22.98
2019-05-19T10:49:16.073Z,23.07
2019-05-19T10:51:44.474Z,23.25
2019-05-19T10:54:12.882Z,23.38
2019-05-19T10:56:41.315Z,23.51
2019-05-19T10:59:09.717Z,23.63
2019-05-19T11:01:38.263Z,23.74
2019-05-19T11:04:06.784Z,23.70
2019-05-19T11:06:35.180Z,23.80
2019-05-19T11:09:05.013Z,23.87
2019-05-19T11:11:33.561Z,23.93
2019-05-19T11:14:01.963Z,23.92
2019-05-19T11:16:30.361Z,23.84
2019-05-19T11:18:58.937Z,23.87
2019-05-19T11:21:27.478Z,23.99
2019-05-19T11:23:57.413Z,24.07
2019-05-19T11:26:25.841Z,24.16
2019-05-19T11:28:54.239Z,24.25
2019-05-19T11:31:22.651Z,24.24
2019-05-19T11:33:51.293Z,24.22
2019-05-19T11:36:19.761Z,24.27
2019-05-19T11:38:48.161Z,24.28
2019-05-19T11:41:16.583Z,24.36
2019-05-19T11:43:44.993Z,24.40
2019-05-19T11:46:13.393Z,24.54
2019-05-19T11:48:41.975Z,24.74
2019-05-19T11:51:10.372Z,24.91
2019-05-19T11:53:38.765Z,24.99
2019-05-19T11:56:11.205Z,25.09
2019-05-19T11:58:37.528Z,25.14
2019-05-19T12:01:05.927Z,25.24
2019-05-19T12:03:34.377Z,25.39
2019-05-19T12:06:02.793Z,25.55
2019-05-19T12:08:31.221Z,25.69
2019-05-19T12:10:59.651Z,25.83
2019-05-19T12:13:28.129Z,25.93
2019-05-19T12:15:56.526Z,25.98
2019-05-19T12:18:25.077Z,26.05
2019-05-19T12:20:56.528Z,26.13
2019-05-19T12:23:24.909Z,26.17
2019-05-19T12:25:53.585Z,26.20
2019-05-19T12:28:21.988Z,26.27
2019-05-19T12:30:50.392Z,26.31
2019-05-19T12:33:18.814Z,26.45
2019-05-19T12:35:47.212Z,26.51
2019-05-19T12:38:15.616Z,26.49
2019-05-19T12:40:44.193Z,26.44
2019-05-19T12:43:12.669Z,26.39
2019-05-19T12:45:41.091Z,26.44
2019-05-19T12:48:09.525Z,26.53
2019-05-19T12:50:37.922Z,26.60
2019-05-19T12:53:06.391Z,26.63
2019-05-19T12:55:34.933Z,26.60
2019-05-19T12:58:03.343Z,26.45
2019-05-19T13:00:31.806Z,26.42
2019-05-19T13:03:00.407Z,26.47
2019-05-19T13:05:28.793Z,26.40
2019-05-19T13:07:57.203Z,26.44
2019-05-19T13:10:25.752Z,26.49
2019-05-19T13:12:54.222Z,26.55
2019-05-19T13:15:22.777Z,26.61
2019-05-19T13:17:51.584Z,26.81
2019-05-19T13:20:20.213Z,26.81
2019-05-19T13:22:48.732Z,26.92
2019-05-19T13:25:17.120Z,27.00
2019-05-19T13:27:45.715Z,27.18
2019-05-19T13:30:14.558Z,27.18
2019-05-19T13:32:46.066Z,27.24
2019-05-19T13:35:14.529Z,27.28
2019-05-19T13:37:42.969Z,27.41
2019-05-19T13:40:12.006Z,27.43
2019-05-19T13:42:40.398Z,27.49
2019-05-19T13:45:09.731Z,27.48
2019-05-19T13:47:38.266Z,27.48
2019-05-19T13:50:08.470Z,27.72
2019-05-19T13:52:36.870Z,27.72
2019-05-19T13:55:07.199Z,27.59
2019-05-19T13:57:35.765Z,27.38
2019-05-19T14:00:05.772Z,27.13
2019-05-19T14:02:34.323Z,26.88
2019-05-19T14:05:02.725Z,26.88
2019-05-19T14:07:31.114Z,26.83
2019-05-19T14:09:59.720Z,27.00
2019-05-19T14:12:28.111Z,27.20
2019-05-19T14:14:56.576Z,27.35
2019-05-19T14:17:25.005Z,27.43
2019-05-19T14:19:53.400Z,27.28
2019-05-19T14:22:21.808Z,27.07
2019-05-19T14:24:50.367Z,26.88
2019-05-19T14:27:29.659Z,26.86
2019-05-19T14:29:48.960Z,26.99
2019-05-19T14:32:17.477Z,27.14
2019-05-19T14:34:45.949Z,27.26
2019-05-19T14:37:15.149Z,27.08
2019-05-19T14:39:43.578Z,27.08
2019-05-19T14:42:13.622Z,26.93
2019-05-19T14:44:42.026Z,26.61
2019-05-19T14:47:10.609Z,26.61
2019-05-19T14:49:39.009Z,26.50
2019-05-19T14:52:07.406Z,26.32
2019-05-19T14:54:35.825Z,26.11
2019-05-19T14:57:04.224Z,25.96
2019-05-19T14:59:32.609Z,25.86
2019-05-19T15:02:01.255Z,25.79
2019-05-19T15:04:29.663Z,25.73
2019-05-19T15:06:58.053Z,25.71
2019-05-19T15:09:26.482Z,25.66
2019-05-19T15:11:54.887Z,25.62
2019-05-19T15:14:23.285Z,25.58
2019-05-19T15:16:51.869Z,25.56
2019-05-19T15:19:20.277Z,25.52
2019-05-19T15:21:48.677Z,25.46
2019-05-19T15:24:17.212Z,25.32
2019-05-19T15:26:45.605Z,25.25
2019-05-19T15:29:14.044Z,25.24
2019-05-19T15:31:42.666Z,25.21
2019-05-19T15:34:11.073Z,25.17
2019-05-19T15:36:39.502Z,25.15
2019-05-19T15:39:08.097Z,25.17
2019-05-19T15:41:36.506Z,25.12
2019-05-19T15:44:05.341Z,25.07
2019-05-19T15:46:33.949Z,25.04
2019-05-19T15:49:02.349Z,24.98
2019-05-19T15:51:37.104Z,24.92
2019-05-19T15:54:00.922Z,24.89
2019-05-19T15:56:29.343Z,24.89
2019-05-19T15:58:57.747Z,24.87
2019-05-19T16:01:26.477Z,24.84
2019-05-19T16:03:54.879Z,24.80
2019-05-19T16:06:23.288Z,24.71
2019-05-19T16:08:51.876Z,24.66
2019-05-19T16:11:20.281Z,24.67
2019-05-19T16:13:48.708Z,24.52
2019-05-19T16:16:17.105Z,24.24
2019-05-19T16:18:45.515Z,23.91
2019-05-19T16:21:13.929Z,23.67
2019-05-19T16:23:42.524Z,23.49
2019-05-19T16:26:10.931Z,23.33
2019-05-19T16:28:39.397Z,23.17
2019-05-19T16:31:08.271Z,22.98
2019-05-19T16:33:38.318Z,22.74
2019-05-19T16:36:07.976Z,22.45
2019-05-19T16:38:36.635Z,22.14
2019-05-19T16:41:05.044Z,21.89
2019-05-19T16:43:33.497Z,21.69
2019-05-19T16:46:01.921Z,21.54
2019-05-19T16:48:30.815Z,21.41
2019-05-19T16:50:59.242Z,21.25
2019-05-19T16:53:28.179Z,21.06
2019-05-19T16:55:56.576Z,20.85
2019-05-19T16:58:24.975Z,20.60
2019-05-19T17:00:53.527Z,20.24
2019-05-19T17:03:22.301Z,20.07
2019-05-19T17:05:50.990Z,19.72
2019-05-19T17:08:20.084Z,19.36
2019-05-19T17:10:48.763Z,19.15
2019-05-19T17:13:17.670Z,18.97
2019-05-19T17:15:46.481Z,18.68
2019-05-19T17:18:14.885Z,18.38
2019-05-19T17:20:43.293Z,18.13
2019-05-19T17:23:11.712Z,17.96
2019-05-19T17:25:40.119Z,17.79
2019-05-19T17:28:08.530Z,17.67
2019-05-19T17:30:37.160Z,17.79
2019-05-19T17:33:05.553Z,17.97
2019-05-19T17:35:34.031Z,18.14
2019-05-19T17:38:02.586Z,18.33
2019-05-19T17:40:31.259Z,18.43
2019-05-19T17:42:59.755Z,18.48
2019-05-19T17:45:28.329Z,18.47
2019-05-19T17:48:09.094Z,18.26
2019-05-19T17:50:32.950Z,17.95
2019-05-19T17:53:01.954Z,17.56
2019-05-19T17:55:31.547Z,17.30
2019-05-19T17:58:01.495Z,17.21
2019-05-19T18:00:38.616Z,17.09
2019-05-19T18:03:07.668Z,17.02
2019-05-19T18:05:36.652Z,16.93
2019-05-19T18:08:06.312Z,16.92
2019-05-19T18:10:35.491Z,16.81
2019-05-19T18:13:04.234Z,16.66
2019-05-19T18:15:32.628Z,16.67
2019-05-19T18:18:01.342Z,16.74
2019-05-19T18:20:29.773Z,16.75
2019-05-19T18:22:58.690Z,16.79
2019-05-19T18:25:27.685Z,16.77
2019-05-19T18:27:56.763Z,16.76
2019-05-19T18:30:25.668Z,16.76
2019-05-19T18:32:54.762Z,16.75
2019-05-19T18:35:23.646Z,16.67
2019-05-19T18:37:52.546Z,16.60
2019-05-19T18:40:21.746Z,16.53
2019-05-19T18:42:50.632Z,16.49
2019-05-19T18:45:19.648Z,16.43
2019-05-19T18:47:48.828Z,16.45
2019-05-19T18:50:18.030Z,16.53
2019-05-19T18:52:46.907Z,16.59
2019-05-19T18:55:17.639Z,16.59
2019-05-19T18:57:46.538Z,16.56
2019-05-19T19:00:18.396Z,16.53
2019-05-19T19:02:48.092Z,16.67
2019-05-19T19:05:17.198Z,16.80
2019-05-19T19:07:50.291Z,16.92
2019-05-19T19:10:19.274Z,16.91
2019-05-19T19:12:49.510Z,16.91
2019-05-19T19:15:18.395Z,16.92
2019-05-19T19:17:47.704Z,16.90
2019-05-19T19:20:16.892Z,16.85
2019-05-19T19:22:45.784Z,16.88
2019-05-19T19:25:14.874Z,16.96
2019-05-19T19:27:43.775Z,17.03
2019-05-19T19:30:12.997Z,16.98
2019-05-19T19:32:42.164Z,16.92
2019-05-19T19:35:11.369Z,16.80
2019-05-19T19:37:40.254Z,16.78
2019-05-19T19:40:09.276Z,16.70
2019-05-19T19:42:38.141Z,16.67
2019-05-19T19:45:07.365Z,16.70
2019-05-19T19:47:36.677Z,16.76
2019-05-19T19:50:07.059Z,16.84
2019-05-19T19:52:35.951Z,16.92
2019-05-19T19:55:06.601Z,16.98
2019-05-19T19:57:35.473Z,17.01
2019-05-19T20:00:17.212Z,17.07
2019-05-19T20:02:36.429Z,17.10
2019-05-19T20:05:06.534Z,17.03
2019-05-19T20:07:35.418Z,16.93
2019-05-19T20:10:05.934Z,16.80
2019-05-19T20:12:34.428Z,16.69
2019-05-19T20:15:02.936Z,16.62
2019-05-19T20:17:31.501Z,16.54
2019-05-19T20:19:59.908Z,16.52
2019-05-19T20:22:28.306Z,16.49
2019-05-19T20:24:57.014Z,16.53
2019-05-19T20:27:25.468Z,16.63
2019-05-19T20:29:53.974Z,16.72
2019-05-19T20:32:23.076Z,16.72
2019-05-19T20:34:51.474Z,16.67
2019-05-19T20:37:19.870Z,16.67
2019-05-19T20:39:48.549Z,16.70
2019-05-19T20:42:16.942Z,16.66
2019-05-19T20:44:45.408Z,16.63
2019-05-19T20:47:14.201Z,16.60
2019-05-19T20:49:42.594Z,16.61
2019-05-19T20:52:11.003Z,16.56
2019-05-19T20:54:39.434Z,16.53
2019-05-19T20:57:07.836Z,16.47
2019-05-19T20:59:36.236Z,16.39
2019-05-19T21:02:04.668Z,16.32
2019-05-19T21:04:33.076Z,16.23
2019-05-19T21:07:01.495Z,16.17
2019-05-19T21:09:29.923Z,16.16
2019-05-19T21:11:58.333Z,16.09
2019-05-19T21:14:26.731Z,16.06
2019-05-19T21:16:55.158Z,16.00
2019-05-19T21:19:23.573Z,16.00
2019-05-19T21:21:51.966Z,16.03
2019-05-19T21:24:20.398Z,16.06
2019-05-19T21:26:48.794Z,16.01
2019-05-19T21:29:17.191Z,15.93
2019-05-19T21:31:45.620Z,15.88
2019-05-19T21:34:14.012Z,15.87
2019-05-19T21:36:42.434Z,15.87
2019-05-19T21:39:10.860Z,15.89
2019-05-19T21:41:40.524Z,15.87
2019-05-19T21:44:08.860Z,15.82
2019-05-19T21:46:38.658Z,15.78
2019-05-19T21:49:07.048Z,15.81
2019-05-19T21:51:35.446Z,15.86
2019-05-19T21:54:04.436Z,15.97
2019-05-19T21:56:32.836Z,16.06
2019-05-19T21:59:01.318Z,16.04
2019-05-19T22:01:29.950Z,16.05
2019-05-19T22:03:58.346Z,16.11
2019-05-19T22:06:28.394Z,16.13
2019-05-19T22:08:59.171Z,16.16
2019-05-19T22:11:27.572Z,16.15
2019-05-19T22:13:56.040Z,16.11
2019-05-19T22:16:26.765Z,16.08
2019-05-19T22:18:55.184Z,16.05
2019-05-19T22:21:23.582Z,16.01
2019-05-19T22:23:52.374Z,16.00
2019-05-19T22:26:20.794Z,15.99
2019-05-19T22:28:49.182Z,15.94
2019-05-19T22:31:17.754Z,15.85
2019-05-19T22:33:46.155Z,15.79
2019-05-19T22:36:14.555Z,15.78
2019-05-19T22:38:42.986Z,15.75
2019-05-19T22:41:11.426Z,15.77
2019-05-19T22:43:39.833Z,15.77
2019-05-19T22:46:08.258Z,15.78
2019-05-19T22:48:36.728Z,15.84
2019-05-19T22:51:05.126Z,15.93
2019-05-19T22:53:33.566Z,15.96
2019-05-19T22:56:02.009Z,15.97
2019-05-19T22:58:30.390Z,15.96
2019-05-19T23:00:59.348Z,15.89
2019-05-19T23:03:27.745Z,15.87
2019-05-19T23:05:56.143Z,15.88
2019-05-19T23:08:25.372Z,15.93
2019-05-19T23:10:53.786Z,15.99
2019-05-19T23:13:22.183Z,16.05
2019-05-19T23:15:51.276Z,16.09
2019-05-19T23:18:19.673Z,16.13
2019-05-19T23:20:48.074Z,16.16
2019-05-19T23:23:16.498Z,16.16
2019-05-19T23:25:44.900Z,16.08
2019-05-19T23:28:13.474Z,16.04
2019-05-19T23:30:42.424Z,16.06
2019-05-19T23:33:10.820Z,16.10
2019-05-19T23:35:39.264Z,16.16
2019-05-19T23:38:07.681Z,16.19
2019-05-19T23:40:36.127Z,16.22
2019-05-19T23:43:04.508Z,16.24
2019-05-19T23:45:33.948Z,16.23
2019-05-19T23:48:02.324Z,16.20
2019-05-19T23:50:30.726Z,16.20
2019-05-19T23:52:59.975Z,16.21
2019-05-19T23:55:28.360Z,16.22
2019-05-19T23:57:56.754Z,16.23
